createdAt,value
2023-04-16T00:19:54.101Z,8.92
2023-04-16T00:39:54.035Z,8.92
2023-04-16T00:59:54.009Z,8.92
2023-04-16T01:19:53.732Z,8.92
2023-04-16T01:39:54.013Z,8.92
2023-04-16T01:59:53.980Z,8.92
2023-04-16T02:19:53.943Z,8.92
2023-04-16T02:39:53.961Z,8.92
2023-04-16T02:59:53.905Z,8.92
2023-04-16T03:19:53.897Z,8.92
2023-04-16T03:39:53.903Z,8.92
2023-04-16T03:59:53.894Z,8.91
2023-04-16T04:20:01.113Z,8.91
2023-04-16T04:39:53.840Z,8.91
2023-04-16T04:59:53.845Z,8.91
2023-04-16T05:19:53.813Z,8.91
2023-04-16T05:39:53.797Z,8.91
2023-04-16T05:59:53.784Z,8.91
2023-04-16T06:19:53.782Z,8.91
2023-04-16T06:39:53.741Z,8.91
2023-04-16T06:59:53.721Z,8.91
2023-04-16T07:19:53.697Z,8.91
2023-04-16T07:39:55.138Z,8.91
2023-04-16T07:59:53.657Z,8.91
2023-04-16T08:19:53.638Z,8.91
2023-04-16T08:39:53.638Z,8.91
2023-04-16T08:59:53.589Z,8.91
2023-04-16T09:19:53.570Z,8.91
2023-04-16T09:39:53.298Z,8.91
2023-04-16T09:59:53.547Z,8.91
2023-04-16T10:19:53.502Z,8.91
2023-04-16T10:39:53.507Z,8.91
2023-04-16T10:59:53.453Z,8.91
2023-04-16T11:19:53.494Z,8.91
2023-04-16T11:39:53.413Z,8.91
2023-04-16T12:00:01.279Z,8.92
2023-04-16T12:19:53.360Z,8.92
2023-04-16T12:39:53.337Z,8.93
2023-04-16T12:59:53.058Z,8.94
2023-04-16T13:19:53.282Z,8.95
2023-04-16T13:39:53.251Z,8.96
2023-04-16T13:59:53.253Z,8.97
2023-04-16T14:19:53.199Z,8.99
2023-04-16T14:39:53.377Z,9
2023-04-16T14:59:53.147Z,9.01
2023-04-16T15:19:53.138Z,9.01
2023-04-16T16:00:06.278Z,9.02
2023-04-16T16:39:53.023Z,9.05
2023-04-16T17:19:52.984Z,9.09
2023-04-16T17:39:52.946Z,9.1
2023-04-16T17:59:52.976Z,9.11
2023-04-16T18:19:52.919Z,9.12
2023-04-16T18:39:52.881Z,9.13
2023-04-16T18:59:52.862Z,9.14
2023-04-16T19:19:52.884Z,9.16
2023-04-16T19:39:52.867Z,9.17
2023-04-16T19:59:54.643Z,9.19
2023-04-16T20:19:52.799Z,9.2
2023-04-16T20:39:52.787Z,9.21
2023-04-16T20:59:52.773Z,9.22
2023-04-16T21:19:52.713Z,9.22
2023-04-16T21:39:52.733Z,9.23
2023-04-16T21:59:52.704Z,9.24
2023-04-16T22:19:52.673Z,9.24
2023-04-16T22:39:52.669Z,9.26
2023-04-16T22:59:52.627Z,9.27
2023-04-16T23:19:52.639Z,9.27
2023-04-16T23:39:52.628Z,9.28
2023-04-16T23:59:52.642Z,9.29
